createdAt,value
2018-07-25T00:01:02.225Z,92.50
2018-07-25T00:03:30.526Z,92.40
2018-07-25T00:05:58.799Z,92.30
2018-07-25T00:08:27.120Z,92.20
2018-07-25T00:10:55.709Z,92.40
2018-07-25T00:13:25.521Z,92.50
2018-07-25T00:15:53.817Z,92.50
2018-07-25T00:18:22.108Z,92.70
2018-07-25T00:20:50.404Z,92.80
2018-07-25T00:23:18.701Z,92.80
2018-07-25T00:25:47.028Z,92.80
2018-07-25T00:28:15.319Z,92.60
2018-07-25T00:30:43.626Z,93.00
2018-07-25T00:33:11.921Z,92.80
2018-07-25T00:35:40.204Z,92.70
2018-07-25T00:38:08.564Z,92.80
2018-07-25T00:40:36.860Z,93.00
2018-07-25T00:43:05.301Z,93.30
2018-07-25T00:45:33.568Z,93.40
2018-07-25T00:48:01.874Z,93.40
2018-07-25T00:50:30.149Z,93.50
2018-07-25T00:52:58.456Z,93.30
2018-07-25T00:56:29.360Z,93.30
2018-07-25T00:58:57.724Z,93.10
2018-07-25T01:01:26.012Z,93.00
2018-07-25T01:03:54.300Z,93.00
2018-07-25T01:06:22.548Z,93.10
2018-07-25T01:08:50.811Z,93.30
2018-07-25T01:11:19.091Z,93.40
2018-07-25T01:13:47.352Z,93.40
2018-07-25T01:16:15.619Z,93.50
2018-07-25T01:18:43.876Z,93.60
2018-07-25T01:21:12.532Z,93.40
2018-07-25T01:23:40.784Z,93.00
2018-07-25T01:26:09.088Z,93.00
2018-07-25T01:28:37.351Z,93.00
2018-07-25T01:31:05.647Z,93.00
2018-07-25T01:33:33.933Z,93.10
2018-07-25T01:38:30.181Z,93.20
2018-07-25T01:40:58.436Z,93.30
2018-07-25T01:43:26.691Z,93.50
2018-07-25T01:45:54.970Z,93.40
2018-07-25T01:48:23.233Z,93.50
2018-07-25T01:50:51.495Z,93.40
2018-07-25T01:53:19.780Z,93.20
2018-07-25T01:55:48.043Z,93.10
2018-07-25T01:58:16.343Z,93.10
2018-07-25T02:00:47.450Z,93.20
2018-07-25T02:03:16.456Z,93.30
2018-07-25T02:05:44.723Z,93.30
2018-07-25T02:08:13.031Z,93.30
2018-07-25T02:10:45.675Z,93.20
2018-07-25T02:13:15.888Z,93.50
2018-07-25T02:18:12.328Z,93.30
2018-07-25T02:20:40.604Z,93.10
2018-07-25T02:23:08.860Z,93.40
2018-07-25T02:25:37.128Z,93.50
2018-07-25T02:28:05.797Z,93.60
2018-07-25T02:30:34.060Z,93.70
2018-07-25T02:33:02.314Z,93.50
2018-07-25T02:35:30.595Z,93.80
2018-07-25T02:37:58.861Z,94.00
2018-07-25T02:40:27.236Z,93.60
2018-07-25T02:42:55.456Z,93.60
2018-07-25T02:45:23.748Z,93.80
2018-07-25T02:47:52.005Z,93.80
2018-07-25T02:50:20.263Z,93.90
2018-07-25T02:52:48.540Z,93.80
2018-07-25T02:55:16.787Z,94.00
2018-07-25T02:57:45.056Z,94.10
2018-07-25T03:00:13.340Z,94.30
2018-07-25T03:02:41.612Z,94.00
2018-07-25T03:05:09.893Z,93.90
2018-07-25T03:07:38.142Z,93.90
2018-07-25T03:10:06.423Z,94.10
2018-07-25T03:12:34.661Z,94.00
2018-07-25T03:15:02.932Z,94.00
2018-07-25T03:17:31.194Z,94.10
2018-07-25T03:19:59.427Z,94.10
2018-07-25T03:22:27.689Z,94.20
2018-07-25T03:24:56.104Z,93.80
2018-07-25T03:29:52.451Z,94.00
2018-07-25T03:32:20.773Z,94.10
2018-07-25T03:34:49.110Z,94.10
2018-07-25T03:37:17.469Z,94.20
2018-07-25T03:39:45.842Z,94.00
2018-07-25T03:42:14.117Z,94.00
2018-07-25T03:44:42.494Z,94.10
2018-07-25T03:47:10.851Z,94.30
2018-07-25T03:49:39.204Z,94.10
2018-07-25T03:52:07.512Z,94.20
2018-07-25T03:54:35.837Z,94.20
2018-07-25T03:57:04.209Z,94.10
2018-07-25T03:59:32.515Z,94.00
2018-07-25T04:02:00.901Z,94.60
2018-07-25T04:04:29.204Z,93.80
2018-07-25T04:06:57.604Z,94.00
2018-07-25T04:09:25.961Z,93.70
2018-07-25T04:11:54.318Z,93.90
2018-07-25T04:14:22.746Z,94.00
2018-07-25T04:16:51.116Z,93.70
2018-07-25T04:19:19.430Z,93.70
2018-07-25T04:21:47.730Z,93.40
2018-07-25T04:24:16.041Z,93.20
2018-07-25T04:26:44.452Z,93.30
2018-07-25T04:29:12.739Z,92.60
2018-07-25T04:31:41.048Z,91.70
2018-07-25T04:34:09.336Z,91.70
2018-07-25T04:36:37.694Z,91.60
2018-07-25T04:39:08.877Z,91.50
2018-07-25T04:41:37.263Z,90.90
2018-07-25T04:46:33.669Z,90.70
2018-07-25T04:49:01.919Z,90.80
2018-07-25T04:51:30.243Z,90.10
2018-07-25T04:53:58.556Z,90.20
2018-07-25T04:56:26.840Z,89.70
2018-07-25T04:58:55.168Z,90.10
2018-07-25T05:01:23.465Z,87.90
2018-07-25T05:03:51.780Z,89.10
2018-07-25T05:06:20.068Z,87.50
2018-07-25T05:08:48.445Z,88.50
2018-07-25T05:11:16.768Z,86.40
2018-07-25T05:13:45.128Z,86.90
2018-07-25T05:16:13.444Z,87.00
2018-07-25T05:18:41.788Z,86.80
2018-07-25T05:21:10.149Z,85.30
2018-07-25T05:23:38.544Z,85.60
2018-07-25T05:26:06.851Z,86.40
2018-07-25T05:28:35.158Z,84.70
2018-07-25T05:31:03.555Z,84.60
2018-07-25T05:33:31.840Z,84.30
2018-07-25T05:36:00.151Z,85.30
2018-07-25T05:38:28.506Z,85.70
2018-07-25T05:40:56.832Z,86.00
2018-07-25T05:43:25.092Z,85.20
2018-07-25T05:45:53.362Z,83.80
2018-07-25T05:48:21.657Z,83.00
2018-07-25T05:50:50.009Z,82.40
2018-07-25T05:53:18.300Z,84.70
2018-07-25T05:55:46.645Z,83.10
2018-07-25T05:58:17.940Z,82.20
2018-07-25T06:00:46.298Z,80.60
2018-07-25T06:03:14.794Z,82.30
2018-07-25T06:05:42.987Z,79.60
2018-07-25T06:08:11.282Z,82.10
2018-07-25T06:10:39.630Z,79.70
2018-07-25T06:13:07.990Z,78.50
2018-07-25T06:15:36.364Z,79.90
2018-07-25T06:18:04.713Z,80.90
2018-07-25T06:20:33.214Z,78.90
2018-07-25T06:23:01.571Z,78.20
2018-07-25T06:25:29.917Z,78.60
2018-07-25T06:27:58.260Z,78.50
2018-07-25T06:30:26.624Z,78.90
2018-07-25T06:32:54.948Z,76.80
2018-07-25T06:35:23.366Z,76.40
2018-07-25T06:37:51.807Z,76.70
2018-07-25T06:42:48.204Z,76.10
2018-07-25T06:45:16.617Z,77.30
2018-07-25T06:47:44.980Z,75.10
2018-07-25T06:50:13.440Z,75.40
2018-07-25T06:52:41.821Z,75.10
2018-07-25T06:55:10.227Z,73.20
2018-07-25T06:57:38.778Z,72.50
2018-07-25T07:00:07.662Z,72.60
2018-07-25T07:02:36.112Z,72.40
2018-07-25T07:05:04.767Z,72.90
2018-07-25T07:07:33.255Z,70.00
2018-07-25T07:10:01.737Z,70.30
2018-07-25T07:12:30.215Z,70.70
2018-07-25T07:14:58.617Z,70.60
2018-07-25T07:17:26.978Z,71.40
2018-07-25T07:19:55.829Z,71.00
2018-07-25T07:22:24.152Z,71.40
2018-07-25T07:24:52.520Z,70.30
2018-07-25T07:27:20.904Z,70.50
2018-07-25T07:29:49.322Z,70.30
2018-07-25T07:32:17.651Z,71.60
2018-07-25T07:34:45.942Z,68.40
2018-07-25T07:37:14.389Z,68.40
2018-07-25T07:39:42.680Z,67.30
2018-07-25T07:42:10.972Z,67.90
2018-07-25T07:44:39.240Z,68.50
2018-07-25T07:47:07.575Z,66.90
2018-07-25T07:49:35.863Z,66.80
2018-07-25T07:52:04.314Z,68.70
2018-07-25T07:54:32.612Z,68.80
2018-07-25T07:57:00.968Z,64.50
2018-07-25T07:59:35.952Z,63.70
2018-07-25T08:02:04.356Z,65.60
2018-07-25T08:04:32.664Z,64.10
2018-07-25T08:07:00.989Z,62.10
2018-07-25T08:09:29.283Z,65.40
2018-07-25T08:11:57.581Z,64.90
2018-07-25T08:14:25.924Z,63.50
2018-07-25T08:16:54.272Z,63.40
2018-07-25T08:19:22.727Z,65.00
2018-07-25T08:21:51.088Z,61.30
2018-07-25T08:24:19.393Z,60.80
2018-07-25T08:26:47.653Z,61.00
2018-07-25T08:29:15.936Z,61.70
2018-07-25T08:31:44.220Z,59.80
2018-07-25T08:34:12.660Z,59.40
2018-07-25T08:36:41.000Z,58.20
2018-07-25T08:39:09.912Z,58.90
2018-07-25T08:41:38.294Z,59.30
2018-07-25T08:44:06.821Z,56.80
2018-07-25T08:46:35.104Z,55.60
2018-07-25T08:49:03.394Z,56.20
2018-07-25T08:51:31.689Z,56.40
2018-07-25T08:54:00.105Z,57.00
2018-07-25T08:56:28.387Z,57.90
2018-07-25T08:58:56.668Z,57.70
2018-07-25T09:01:24.924Z,56.10
2018-07-25T09:03:53.185Z,56.70
2018-07-25T09:06:21.633Z,55.50
2018-07-25T09:08:49.883Z,57.50
2018-07-25T09:11:23.720Z,58.70
2018-07-25T09:13:52.024Z,55.30
2018-07-25T09:16:20.365Z,55.40
2018-07-25T09:18:48.648Z,56.40
2018-07-25T09:21:17.241Z,54.80
2018-07-25T09:23:45.726Z,53.30
2018-07-25T09:26:14.064Z,54.10
2018-07-25T09:28:42.369Z,52.40
2018-07-25T09:31:10.692Z,53.60
2018-07-25T09:33:39.054Z,51.40
2018-07-25T09:36:07.354Z,53.30
2018-07-25T09:38:35.677Z,54.40
2018-07-25T09:41:04.266Z,51.50
2018-07-25T09:43:32.585Z,52.40
2018-07-25T09:46:00.870Z,53.20
2018-07-25T09:48:29.139Z,51.00
2018-07-25T09:50:57.408Z,52.70
2018-07-25T09:53:25.823Z,50.80
2018-07-25T09:55:54.176Z,49.90
2018-07-25T10:00:51.157Z,53.30
2018-07-25T10:03:20.282Z,52.40
2018-07-25T10:05:48.581Z,48.30
2018-07-25T10:08:17.733Z,47.60
2018-07-25T10:10:46.147Z,48.00
2018-07-25T10:13:14.516Z,50.00
2018-07-25T10:15:42.811Z,50.40
2018-07-25T10:18:11.068Z,52.30
2018-07-25T10:20:39.476Z,48.50
2018-07-25T10:23:07.677Z,45.90
2018-07-25T10:25:36.077Z,46.80
2018-07-25T10:28:04.509Z,49.10
2018-07-25T10:30:32.840Z,47.30
2018-07-25T10:33:01.161Z,47.80
2018-07-25T10:35:29.483Z,47.50
2018-07-25T10:37:57.800Z,48.50
2018-07-25T10:40:26.081Z,48.30
2018-07-25T10:42:54.388Z,50.50
2018-07-25T10:45:22.712Z,48.80
2018-07-25T10:47:51.017Z,48.90
2018-07-25T10:50:19.289Z,46.40
2018-07-25T10:52:47.541Z,47.70
2018-07-25T10:55:15.879Z,46.60
2018-07-25T10:57:44.148Z,46.80
2018-07-25T11:00:12.463Z,47.40
2018-07-25T11:46:22.160Z,49.50
2018-07-25T11:48:50.473Z,47.80
2018-07-25T11:51:18.764Z,46.70
2018-07-25T11:53:47.074Z,48.10
2018-07-25T11:56:15.371Z,46.50
2018-07-25T11:58:43.717Z,46.50
2018-07-25T12:01:12.073Z,45.80
2018-07-25T12:03:40.280Z,47.10
2018-07-25T12:06:08.688Z,49.40
2018-07-25T12:11:33.576Z,45.20
2018-07-25T12:14:01.836Z,43.50
2018-07-25T12:16:30.111Z,43.50
2018-07-25T12:18:58.385Z,43.60
2018-07-25T12:23:54.656Z,43.80
2018-07-25T12:26:22.966Z,42.80
2018-07-25T12:28:51.218Z,44.00
2018-07-25T12:31:19.928Z,44.70
2018-07-25T12:33:48.212Z,40.80
2018-07-25T12:36:16.472Z,42.30
2018-07-25T12:38:44.732Z,45.00
2018-07-25T12:41:12.987Z,41.80
2018-07-25T12:43:41.248Z,42.60
2018-07-25T12:46:09.508Z,42.60
2018-07-25T12:48:37.789Z,44.20
2018-07-25T12:51:06.792Z,44.20
2018-07-25T12:53:35.084Z,42.80
2018-07-25T12:56:03.377Z,43.40
2018-07-25T12:58:31.653Z,43.50
2018-07-25T13:00:59.963Z,43.60
2018-07-25T13:03:28.313Z,43.70
2018-07-25T13:05:56.616Z,43.40
2018-07-25T13:08:25.008Z,42.20
2018-07-25T13:10:53.294Z,41.90
2018-07-25T13:13:21.548Z,42.30
2018-07-25T13:15:49.892Z,40.00
2018-07-25T13:18:18.143Z,40.30
2018-07-25T13:23:14.397Z,39.80
2018-07-25T13:25:42.672Z,38.30
2018-07-25T13:28:10.975Z,39.90
2018-07-25T13:30:39.305Z,41.20
2018-07-25T13:33:07.721Z,41.20
2018-07-25T13:35:35.984Z,42.50
2018-07-25T13:38:04.265Z,42.80
2018-07-25T13:40:32.540Z,41.70
2018-07-25T13:43:00.927Z,41.70
2018-07-25T13:45:29.347Z,41.00
2018-07-25T13:50:25.569Z,40.20
2018-07-25T13:52:53.885Z,40.50
2018-07-25T13:57:56.745Z,41.00
2018-07-25T14:00:25.013Z,40.90
2018-07-25T14:02:53.272Z,39.90
2018-07-25T14:05:21.588Z,40.80
2018-07-25T14:07:49.812Z,40.60
2018-07-25T14:10:18.088Z,39.10
2018-07-25T14:12:46.408Z,38.50
2018-07-25T14:15:14.673Z,38.80
2018-07-25T14:17:42.952Z,41.60
2018-07-25T14:20:11.260Z,40.20
2018-07-25T14:22:39.552Z,40.00
2018-07-25T14:25:07.892Z,38.50
2018-07-25T14:27:36.156Z,38.70
2018-07-25T14:30:04.753Z,39.20
2018-07-25T14:37:28.976Z,38.60
2018-07-25T14:39:57.377Z,37.40
2018-07-25T14:42:25.564Z,37.90
2018-07-25T14:44:53.849Z,37.70
2018-07-25T14:47:22.217Z,37.40
2018-07-25T14:49:50.441Z,36.90
2018-07-25T14:52:18.724Z,36.60
2018-07-25T14:54:46.992Z,38.10
2018-07-25T14:57:15.280Z,37.50
2018-07-25T14:59:43.524Z,37.70
2018-07-25T15:02:12.146Z,38.40
2018-07-25T15:04:40.406Z,36.90
2018-07-25T15:07:08.677Z,38.80
2018-07-25T15:09:36.968Z,37.80
2018-07-25T15:12:05.380Z,36.50
2018-07-25T15:14:33.752Z,36.90
2018-07-25T15:17:02.151Z,38.80
2018-07-25T15:19:30.409Z,38.20
2018-07-25T15:21:58.670Z,38.20
2018-07-25T15:24:26.951Z,37.70
2018-07-25T15:26:55.224Z,38.10
2018-07-25T15:29:23.513Z,38.10
2018-07-25T15:31:51.781Z,38.60
2018-07-25T15:34:20.045Z,38.00
2018-07-25T15:36:49.594Z,38.50
2018-07-25T15:39:24.973Z,38.60
2018-07-25T15:41:54.136Z,40.30
2018-07-25T15:44:23.300Z,37.60
2018-07-25T15:46:51.636Z,38.20
2018-07-25T15:49:20.064Z,42.20
2018-07-25T15:51:48.408Z,45.70
2018-07-25T15:54:16.684Z,46.30
2018-07-25T15:56:44.997Z,46.40
2018-07-25T15:59:13.275Z,44.60
2018-07-25T16:01:41.603Z,42.60
2018-07-25T16:04:09.884Z,41.00
2018-07-25T16:06:38.200Z,39.60
2018-07-25T16:09:08.729Z,39.20
2018-07-25T16:11:37.384Z,40.70
2018-07-25T16:14:05.693Z,42.40
2018-07-25T16:16:33.961Z,44.10
2018-07-25T16:19:02.236Z,45.60
2018-07-25T16:21:30.520Z,46.90
2018-07-25T16:23:58.857Z,48.00
2018-07-25T16:26:27.095Z,48.30
2018-07-25T16:28:55.348Z,50.10
2018-07-25T16:31:30.016Z,51.20
2018-07-25T16:33:58.264Z,53.40
2018-07-25T16:36:26.540Z,54.90
2018-07-25T16:38:54.825Z,52.90
2018-07-25T16:41:23.111Z,55.80
2018-07-25T16:43:51.405Z,59.00
2018-07-25T16:46:19.877Z,63.70
2018-07-25T16:48:48.141Z,69.70
2018-07-25T16:51:16.441Z,71.10
2018-07-25T16:53:44.696Z,74.50
2018-07-25T16:56:12.979Z,75.80
2018-07-25T16:58:41.244Z,72.60
2018-07-25T17:01:09.528Z,71.50
2018-07-25T17:03:37.790Z,72.50
2018-07-25T17:06:06.088Z,74.70
2018-07-25T17:08:34.424Z,71.20
2018-07-25T17:11:02.714Z,73.10
2018-07-25T17:13:30.982Z,75.10
2018-07-25T17:15:59.236Z,74.20
2018-07-25T17:18:27.504Z,76.00
2018-07-25T17:20:55.775Z,75.00
2018-07-25T17:25:52.064Z,71.20
2018-07-25T17:28:20.336Z,67.10
2018-07-25T17:30:48.633Z,66.50
2018-07-25T17:35:45.564Z,62.80
2018-07-25T17:38:13.918Z,60.20
2018-07-25T17:40:42.216Z,55.00
2018-07-25T17:43:10.468Z,55.60
2018-07-25T17:45:38.761Z,56.90
2018-07-25T17:48:07.127Z,60.90
2018-07-25T17:50:35.351Z,62.30
2018-07-25T17:53:03.656Z,63.20
2018-07-25T17:55:32.079Z,64.90
2018-07-25T17:58:00.442Z,67.90
2018-07-25T18:00:28.737Z,72.30
2018-07-25T18:05:25.017Z,73.20
2018-07-25T18:07:53.362Z,76.20
2018-07-25T18:10:21.705Z,77.80
2018-07-25T18:12:50.017Z,77.70
2018-07-25T18:15:18.294Z,78.70
2018-07-25T18:17:46.589Z,76.60
2018-07-25T18:20:14.868Z,78.70
2018-07-25T18:22:43.141Z,75.50
2018-07-25T18:25:11.439Z,77.10
2018-07-25T18:27:39.722Z,78.50
2018-07-25T18:30:08.009Z,79.30
2018-07-25T18:32:36.301Z,78.10
2018-07-25T18:35:04.708Z,78.30
2018-07-25T18:37:32.993Z,79.50
2018-07-25T18:40:01.280Z,82.50
2018-07-25T18:42:29.571Z,82.10
2018-07-25T18:44:57.844Z,84.90
2018-07-25T18:47:26.146Z,85.70
2018-07-25T18:49:54.409Z,84.80
2018-07-25T18:52:22.717Z,86.00
2018-07-25T18:57:18.985Z,86.00
2018-07-25T18:59:47.240Z,86.20
2018-07-25T19:02:15.511Z,86.00
2018-07-25T19:04:43.806Z,86.20
2018-07-25T19:07:12.145Z,86.70
2018-07-25T19:09:40.352Z,86.70
2018-07-25T19:12:08.976Z,81.60
2018-07-25T19:14:42.497Z,81.00
2018-07-25T19:17:10.825Z,80.60
2018-07-25T19:19:39.144Z,80.00
2018-07-25T19:22:07.409Z,79.20
2018-07-25T19:24:35.670Z,78.90
2018-07-25T19:27:04.175Z,79.90
2018-07-25T19:29:32.445Z,80.30
2018-07-25T19:32:00.749Z,80.00
2018-07-25T19:34:29.004Z,80.20
2018-07-25T19:36:57.286Z,80.50
2018-07-25T19:39:29.784Z,81.40
2018-07-25T19:41:58.085Z,82.20
2018-07-25T19:44:26.353Z,81.00
2018-07-25T19:46:54.628Z,81.40
2018-07-25T19:49:22.907Z,81.80
2018-07-25T19:51:51.201Z,83.00
2018-07-25T19:54:19.454Z,83.40
2018-07-25T19:56:51.240Z,85.10
2018-07-25T19:59:20.049Z,86.50
2018-07-25T20:01:48.502Z,86.50
2018-07-25T20:04:16.765Z,87.50
2018-07-25T20:06:45.017Z,87.50
2018-07-25T20:09:13.289Z,86.90
2018-07-25T20:11:43.065Z,86.70
2018-07-25T20:14:16.783Z,87.10
2018-07-25T20:16:45.066Z,87.40
2018-07-25T20:19:13.274Z,86.70
2018-07-25T20:21:41.605Z,86.60
2018-07-25T20:24:09.876Z,88.10
2018-07-25T20:26:38.400Z,88.50
2018-07-25T20:29:06.795Z,88.90
2018-07-25T20:31:35.404Z,88.20
2018-07-25T20:34:03.697Z,89.00
2018-07-25T20:36:31.956Z,90.00
2018-07-25T20:39:00.255Z,89.30
2018-07-25T20:41:28.565Z,90.30
2018-07-25T20:43:56.865Z,90.50
2018-07-25T20:46:25.154Z,90.20
2018-07-25T20:48:53.536Z,90.40
2018-07-25T20:51:21.834Z,90.40
2018-07-25T20:56:48.838Z,90.70
2018-07-25T20:59:17.115Z,90.70
2018-07-25T21:01:45.455Z,90.60
2018-07-25T21:04:14.561Z,91.00
2018-07-25T21:06:42.832Z,91.10
2018-07-25T21:09:11.112Z,91.20
2018-07-25T21:11:39.413Z,91.40
2018-07-25T21:14:07.749Z,91.40
2018-07-25T21:16:36.041Z,92.00
2018-07-25T21:19:04.312Z,92.40
2018-07-25T21:21:32.576Z,92.50
2018-07-25T21:24:00.865Z,92.40
2018-07-25T21:26:29.226Z,92.00
2018-07-25T21:28:57.556Z,92.60
2018-07-25T21:31:26.754Z,93.00
2018-07-25T21:33:55.029Z,93.00
2018-07-25T21:36:23.314Z,92.70
2018-07-25T21:38:51.582Z,92.70
2018-07-25T21:41:19.840Z,92.40
2018-07-25T21:43:48.192Z,92.40
2018-07-25T21:46:16.489Z,92.60
2018-07-25T21:48:44.939Z,92.20
2018-07-25T21:51:13.229Z,92.20
2018-07-25T21:53:41.526Z,92.60
2018-07-25T21:56:09.796Z,92.60
2018-07-25T21:58:38.116Z,92.30
2018-07-25T22:01:13.320Z,92.70
2018-07-25T22:03:41.658Z,92.80
2018-07-25T22:06:09.916Z,92.30
2018-07-25T22:08:38.169Z,92.20
2018-07-25T22:11:06.453Z,92.50
2018-07-25T22:13:34.719Z,92.70
2018-07-25T22:16:03.012Z,92.70
2018-07-25T22:18:31.284Z,92.70
2018-07-25T22:20:59.610Z,92.70
2018-07-25T22:23:27.884Z,92.90
2018-07-25T22:25:56.181Z,92.90
2018-07-25T22:28:24.480Z,93.00
2018-07-25T22:30:52.756Z,93.00
2018-07-25T22:33:21.032Z,93.00
2018-07-25T22:35:49.296Z,92.80
2018-07-25T22:38:17.605Z,92.70
2018-07-25T22:40:45.872Z,92.90
2018-07-25T22:43:14.152Z,93.10
2018-07-25T22:45:42.404Z,92.90
2018-07-25T22:48:10.692Z,93.10
2018-07-25T22:50:38.999Z,93.10
2018-07-25T22:53:07.252Z,93.10
2018-07-25T22:55:35.556Z,93.60
2018-07-25T22:58:03.804Z,93.40
2018-07-25T23:00:32.097Z,93.40
2018-07-25T23:03:00.365Z,93.30
2018-07-25T23:05:28.626Z,93.30
2018-07-25T23:07:56.908Z,93.60
2018-07-25T23:10:25.216Z,93.80
2018-07-25T23:12:53.528Z,93.90
2018-07-25T23:15:21.989Z,94.00
2018-07-25T23:17:50.585Z,94.00
2018-07-25T23:20:18.856Z,94.00
2018-07-25T23:22:57.445Z,93.90
2018-07-25T23:25:26.240Z,93.70
2018-07-25T23:27:55.944Z,93.50
2018-07-25T23:30:24.844Z,93.20
2018-07-25T23:32:53.114Z,93.30
2018-07-25T23:35:21.813Z,93.50
2018-07-25T23:37:50.684Z,93.70
2018-07-25T23:40:19.293Z,94.00
2018-07-25T23:42:48.850Z,94.00
2018-07-25T23:45:17.287Z,94.10
2018-07-25T23:47:45.557Z,93.90
2018-07-25T23:50:13.853Z,94.00
2018-07-25T23:52:42.131Z,93.60
2018-07-25T23:55:10.568Z,93.90
2018-07-25T23:57:38.943Z,93.90
